sensor_id;sensor_type;location;lat;lon;timestamp;P1;durP1;ratioP1;P2;durP2;ratioP2
67762;SDS011;54566;52.022;5.582;2022-07-04T00:01:18;9.38;;;1.58;;
67762;SDS011;54566;52.022;5.582;2022-07-04T00:03:44;5.43;;;1.50;;
67762;SDS011;54566;52.022;5.582;2022-07-04T00:06:09;6.05;;;1.77;;
67762;SDS011;54566;52.022;5.582;2022-07-04T00:08:36;6.22;;;1.48;;
67762;SDS011;54566;52.022;5.582;2022-07-04T00:13:31;6.20;;;1.50;;
67762;SDS011;54566;52.022;5.582;2022-07-04T00:15:56;4.93;;;1.50;;
67762;SDS011;54566;52.022;5.582;2022-07-04T00:18:22;7.75;;;2.00;;
67762;SDS011;54566;52.022;5.582;2022-07-04T00:20:47;5.25;;;1.63;;
67762;SDS011;54566;52.022;5.582;2022-07-04T00:23:13;6.72;;;1.80;;
67762;SDS011;54566;52.022;5.582;2022-07-04T00:25:39;5.32;;;1.48;;
67762;SDS011;54566;52.022;5.582;2022-07-04T00:28:04;8.30;;;2.63;;
67762;SDS011;54566;52.022;5.582;2022-07-04T00:30:30;6.28;;;2.00;;
67762;SDS011;54566;52.022;5.582;2022-07-04T00:32:56;11.68;;;2.03;;
67762;SDS011;54566;52.022;5.582;2022-07-04T00:35:21;4.93;;;1.95;;
67762;SDS011;54566;52.022;5.582;2022-07-04T00:37:48;4.88;;;1.67;;
67762;SDS011;54566;52.022;5.582;2022-07-04T00:40:14;6.60;;;1.80;;
67762;SDS011;54566;52.022;5.582;2022-07-04T00:42:39;7.25;;;2.20;;
67762;SDS011;54566;52.022;5.582;2022-07-04T00:45:05;7.30;;;2.22;;
67762;SDS011;54566;52.022;5.582;2022-07-04T00:47:32;5.00;;;2.15;;
67762;SDS011;54566;52.022;5.582;2022-07-04T00:49:57;4.80;;;1.88;;
67762;SDS011;54566;52.022;5.582;2022-07-04T00:52:23;7.47;;;2.00;;
67762;SDS011;54566;52.022;5.582;2022-07-04T00:54:49;5.90;;;1.70;;
67762;SDS011;54566;52.022;5.582;2022-07-04T00:57:15;9.07;;;2.20;;
67762;SDS011;54566;52.022;5.582;2022-07-04T00:59:50;3.67;;;2.28;;
67762;SDS011;54566;52.022;5.582;2022-07-04T01:02:15;8.60;;;2.63;;
67762;SDS011;54566;52.022;5.582;2022-07-04T01:04:41;8.90;;;2.53;;
67762;SDS011;54566;52.022;5.582;2022-07-04T01:07:07;9.82;;;2.83;;
67762;SDS011;54566;52.022;5.582;2022-07-04T01:09:35;4.15;;;2.90;;
67762;SDS011;54566;52.022;5.582;2022-07-04T01:12:01;5.57;;;2.53;;
67762;SDS011;54566;52.022;5.582;2022-07-04T01:14:27;11.27;;;2.97;;
67762;SDS011;54566;52.022;5.582;2022-07-04T01:16:53;4.07;;;2.42;;
67762;SDS011;54566;52.022;5.582;2022-07-04T01:19:18;7.65;;;3.05;;
67762;SDS011;54566;52.022;5.582;2022-07-04T01:21:44;8.93;;;3.20;;
67762;SDS011;54566;52.022;5.582;2022-07-04T01:24:10;8.38;;;3.20;;
67762;SDS011;54566;52.022;5.582;2022-07-04T01:26:36;7.68;;;3.70;;
67762;SDS011;54566;52.022;5.582;2022-07-04T01:29:02;11.23;;;3.90;;
67762;SDS011;54566;52.022;5.582;2022-07-04T01:31:28;9.35;;;3.70;;
67762;SDS011;54566;52.022;5.582;2022-07-04T01:33:53;8.88;;;3.40;;
67762;SDS011;54566;52.022;5.582;2022-07-04T01:36:19;8.93;;;3.67;;
67762;SDS011;54566;52.022;5.582;2022-07-04T01:38:44;11.35;;;3.42;;
67762;SDS011;54566;52.022;5.582;2022-07-04T01:41:10;6.90;;;3.40;;
67762;SDS011;54566;52.022;5.582;2022-07-04T01:43:36;9.20;;;3.42;;
67762;SDS011;54566;52.022;5.582;2022-07-04T01:46:01;7.45;;;3.60;;
67762;SDS011;54566;52.022;5.582;2022-07-04T01:48:27;9.20;;;3.22;;
67762;SDS011;54566;52.022;5.582;2022-07-04T01:50:53;8.73;;;3.40;;
67762;SDS011;54566;52.022;5.582;2022-07-04T01:53:19;8.48;;;3.60;;
67762;SDS011;54566;52.022;5.582;2022-07-04T01:55:44;10.52;;;3.95;;
67762;SDS011;54566;52.022;5.582;2022-07-04T01:58:10;9.93;;;3.63;;
67762;SDS011;54566;52.022;5.582;2022-07-04T02:00:35;6.35;;;3.90;;
67762;SDS011;54566;52.022;5.582;2022-07-04T02:03:19;9.20;;;3.40;;
67762;SDS011;54566;52.022;5.582;2022-07-04T02:05:45;8.43;;;3.70;;
67762;SDS011;54566;52.022;5.582;2022-07-04T02:08:10;5.95;;;3.70;;
67762;SDS011;54566;52.022;5.582;2022-07-04T02:10:36;6.15;;;3.13;;
67762;SDS011;54566;52.022;5.582;2022-07-04T02:13:02;6.90;;;3.85;;
67762;SDS011;54566;52.022;5.582;2022-07-04T02:15:29;5.70;;;4.00;;
67762;SDS011;54566;52.022;5.582;2022-07-04T02:18:13;7.53;;;4.85;;
67762;SDS011;54566;52.022;5.582;2022-07-04T02:20:39;8.25;;;4.25;;
67762;SDS011;54566;52.022;5.582;2022-07-04T02:23:05;6.70;;;4.03;;
67762;SDS011;54566;52.022;5.582;2022-07-04T02:25:31;9.48;;;4.40;;
67762;SDS011;54566;52.022;5.582;2022-07-04T02:27:57;8.80;;;4.30;;
67762;SDS011;54566;52.022;5.582;2022-07-04T02:30:23;13.50;;;4.55;;
67762;SDS011;54566;52.022;5.582;2022-07-04T02:32:50;6.65;;;3.67;;
67762;SDS011;54566;52.022;5.582;2022-07-04T02:35:15;7.32;;;4.10;;
67762;SDS011;54566;52.022;5.582;2022-07-04T02:37:41;11.02;;;3.97;;
67762;SDS011;54566;52.022;5.582;2022-07-04T02:40:08;10.80;;;4.43;;
67762;SDS011;54566;52.022;5.582;2022-07-04T02:42:34;8.00;;;3.60;;
67762;SDS011;54566;52.022;5.582;2022-07-04T02:45:02;7.50;;;4.30;;
67762;SDS011;54566;52.022;5.582;2022-07-04T02:47:30;7.25;;;3.97;;
67762;SDS011;54566;52.022;5.582;2022-07-04T02:49:56;6.10;;;4.18;;
67762;SDS011;54566;52.022;5.582;2022-07-04T02:52:22;8.25;;;4.32;;
67762;SDS011;54566;52.022;5.582;2022-07-04T02:54:47;8.90;;;4.20;;
67762;SDS011;54566;52.022;5.582;2022-07-04T02:57:13;10.38;;;4.15;;
67762;SDS011;54566;52.022;5.582;2022-07-04T02:59:40;8.90;;;4.00;;
67762;SDS011;54566;52.022;5.582;2022-07-04T03:02:05;9.75;;;4.70;;
67762;SDS011;54566;52.022;5.582;2022-07-04T03:04:31;6.60;;;3.92;;
67762;SDS011;54566;52.022;5.582;2022-07-04T03:06:56;7.05;;;5.00;;
67762;SDS011;54566;52.022;5.582;2022-07-04T03:09:22;7.60;;;4.40;;
67762;SDS011;54566;52.022;5.582;2022-07-04T03:11:48;8.05;;;4.22;;
67762;SDS011;54566;52.022;5.582;2022-07-04T03:14:13;8.98;;;4.68;;
67762;SDS011;54566;52.022;5.582;2022-07-04T03:16:39;7.10;;;4.38;;
67762;SDS011;54566;52.022;5.582;2022-07-04T03:19:05;9.50;;;3.97;;
67762;SDS011;54566;52.022;5.582;2022-07-04T03:21:30;5.95;;;3.90;;
67762;SDS011;54566;52.022;5.582;2022-07-04T03:23:56;9.07;;;4.30;;
67762;SDS011;54566;52.022;5.582;2022-07-04T03:28:51;5.65;;;3.80;;
67762;SDS011;54566;52.022;5.582;2022-07-04T03:31:17;13.18;;;3.90;;
67762;SDS011;54566;52.022;5.582;2022-07-04T03:33:43;6.68;;;4.18;;
67762;SDS011;54566;52.022;5.582;2022-07-04T03:36:08;5.50;;;3.88;;
67762;SDS011;54566;52.022;5.582;2022-07-04T03:38:34;6.60;;;3.90;;
67762;SDS011;54566;52.022;5.582;2022-07-04T03:41:00;7.00;;;4.00;;
67762;SDS011;54566;52.022;5.582;2022-07-04T03:43:25;7.00;;;4.00;;
67762;SDS011;54566;52.022;5.582;2022-07-04T03:45:51;8.90;;;4.15;;
67762;SDS011;54566;52.022;5.582;2022-07-04T03:48:17;5.68;;;4.07;;
67762;SDS011;54566;52.022;5.582;2022-07-04T03:50:42;9.77;;;4.28;;
67762;SDS011;54566;52.022;5.582;2022-07-04T03:53:08;6.85;;;4.38;;
67762;SDS011;54566;52.022;5.582;2022-07-04T03:55:33;8.18;;;4.90;;
67762;SDS011;54566;52.022;5.582;2022-07-04T03:57:59;8.45;;;5.05;;
67762;SDS011;54566;52.022;5.582;2022-07-04T04:00:26;9.55;;;5.20;;
67762;SDS011;54566;52.022;5.582;2022-07-04T04:02:51;9.57;;;5.05;;
67762;SDS011;54566;52.022;5.582;2022-07-04T04:05:17;11.98;;;5.22;;
67762;SDS011;54566;52.022;5.582;2022-07-04T04:07:52;8.00;;;5.03;;
67762;SDS011;54566;52.022;5.582;2022-07-04T04:10:22;10.05;;;5.50;;
67762;SDS011;54566;52.022;5.582;2022-07-04T04:12:49;13.85;;;5.95;;
67762;SDS011;54566;52.022;5.582;2022-07-04T04:15:15;15.32;;;5.88;;
67762;SDS011;54566;52.022;5.582;2022-07-04T04:17:41;7.18;;;5.45;;
67762;SDS011;54566;52.022;5.582;2022-07-04T04:20:07;12.60;;;5.85;;
67762;SDS011;54566;52.022;5.582;2022-07-04T04:22:33;11.32;;;5.90;;
67762;SDS011;54566;52.022;5.582;2022-07-04T04:24:59;9.13;;;7.03;;
67762;SDS011;54566;52.022;5.582;2022-07-04T04:27:25;9.98;;;6.82;;
67762;SDS011;54566;52.022;5.582;2022-07-04T04:29:50;12.20;;;6.47;;
67762;SDS011;54566;52.022;5.582;2022-07-04T04:32:16;14.00;;;6.90;;
67762;SDS011;54566;52.022;5.582;2022-07-04T04:34:42;10.77;;;7.30;;
67762;SDS011;54566;52.022;5.582;2022-07-04T04:37:07;12.65;;;7.18;;
67762;SDS011;54566;52.022;5.582;2022-07-04T04:39:33;14.73;;;7.60;;
67762;SDS011;54566;52.022;5.582;2022-07-04T04:41:59;13.90;;;6.80;;
67762;SDS011;54566;52.022;5.582;2022-07-04T04:44:24;12.82;;;6.80;;
67762;SDS011;54566;52.022;5.582;2022-07-04T04:46:50;12.75;;;6.95;;
67762;SDS011;54566;52.022;5.582;2022-07-04T04:49:15;12.90;;;7.43;;
67762;SDS011;54566;52.022;5.582;2022-07-04T04:51:42;14.32;;;7.50;;
67762;SDS011;54566;52.022;5.582;2022-07-04T04:54:08;9.90;;;6.93;;
67762;SDS011;54566;52.022;5.582;2022-07-04T04:56:33;9.65;;;6.68;;
67762;SDS011;54566;52.022;5.582;2022-07-04T04:58:59;16.73;;;7.45;;
67762;SDS011;54566;52.022;5.582;2022-07-04T05:01:24;9.90;;;6.85;;
67762;SDS011;54566;52.022;5.582;2022-07-04T05:03:50;12.43;;;6.78;;
67762;SDS011;54566;52.022;5.582;2022-07-04T05:06:16;12.05;;;6.82;;
67762;SDS011;54566;52.022;5.582;2022-07-04T05:08:43;17.02;;;6.63;;
67762;SDS011;54566;52.022;5.582;2022-07-04T05:11:09;15.07;;;7.10;;
67762;SDS011;54566;52.022;5.582;2022-07-04T05:13:35;10.57;;;6.93;;
67762;SDS011;54566;52.022;5.582;2022-07-04T05:16:00;13.45;;;6.90;;
67762;SDS011;54566;52.022;5.582;2022-07-04T05:18:26;14.45;;;6.32;;
67762;SDS011;54566;52.022;5.582;2022-07-04T05:20:51;19.08;;;6.93;;
67762;SDS011;54566;52.022;5.582;2022-07-04T05:23:17;17.65;;;6.13;;
67762;SDS011;54566;52.022;5.582;2022-07-04T05:25:43;17.55;;;6.03;;
67762;SDS011;54566;52.022;5.582;2022-07-04T05:28:08;14.15;;;5.65;;
67762;SDS011;54566;52.022;5.582;2022-07-04T05:30:34;17.83;;;6.18;;
67762;SDS011;54566;52.022;5.582;2022-07-04T05:32:59;21.58;;;6.50;;
67762;SDS011;54566;52.022;5.582;2022-07-04T05:35:26;16.58;;;6.43;;
67762;SDS011;54566;52.022;5.582;2022-07-04T05:37:52;17.42;;;5.97;;
67762;SDS011;54566;52.022;5.582;2022-07-04T05:40:18;14.50;;;5.60;;
67762;SDS011;54566;52.022;5.582;2022-07-04T05:42:46;14.18;;;5.80;;
67762;SDS011;54566;52.022;5.582;2022-07-04T05:45:12;15.45;;;5.95;;
67762;SDS011;54566;52.022;5.582;2022-07-04T05:47:37;17.45;;;5.70;;
67762;SDS011;54566;52.022;5.582;2022-07-04T05:50:03;12.13;;;6.32;;
67762;SDS011;54566;52.022;5.582;2022-07-04T05:52:29;15.75;;;5.00;;
67762;SDS011;54566;52.022;5.582;2022-07-04T05:54:55;14.32;;;5.38;;
67762;SDS011;54566;52.022;5.582;2022-07-04T05:57:20;14.80;;;5.55;;
67762;SDS011;54566;52.022;5.582;2022-07-04T05:59:46;16.38;;;5.18;;
67762;SDS011;54566;52.022;5.582;2022-07-04T06:02:12;11.80;;;4.60;;
67762;SDS011;54566;52.022;5.582;2022-07-04T06:04:38;14.02;;;5.22;;
67762;SDS011;54566;52.022;5.582;2022-07-04T06:07:03;13.75;;;5.28;;
67762;SDS011;54566;52.022;5.582;2022-07-04T06:09:29;19.13;;;5.53;;
67762;SDS011;54566;52.022;5.582;2022-07-04T06:11:54;18.10;;;5.22;;
67762;SDS011;54566;52.022;5.582;2022-07-04T06:14:20;18.40;;;4.85;;
67762;SDS011;54566;52.022;5.582;2022-07-04T06:16:46;15.45;;;4.80;;
67762;SDS011;54566;52.022;5.582;2022-07-04T06:19:11;21.55;;;4.55;;
67762;SDS011;54566;52.022;5.582;2022-07-04T06:21:37;12.35;;;4.47;;
67762;SDS011;54566;52.022;5.582;2022-07-04T06:24:03;20.50;;;5.50;;
67762;SDS011;54566;52.022;5.582;2022-07-04T06:26:28;16.65;;;5.32;;
67762;SDS011;54566;52.022;5.582;2022-07-04T06:28:55;16.60;;;4.82;;
67762;SDS011;54566;52.022;5.582;2022-07-04T06:31:21;12.52;;;4.40;;
67762;SDS011;54566;52.022;5.582;2022-07-04T06:33:46;10.90;;;4.05;;
67762;SDS011;54566;52.022;5.582;2022-07-04T06:36:31;16.23;;;4.30;;
67762;SDS011;54566;52.022;5.582;2022-07-04T06:38:57;12.18;;;3.92;;
67762;SDS011;54566;52.022;5.582;2022-07-04T06:41:23;13.90;;;3.55;;
67762;SDS011;54566;52.022;5.582;2022-07-04T06:43:49;13.85;;;3.60;;
67762;SDS011;54566;52.022;5.582;2022-07-04T06:46:15;14.73;;;4.13;;
67762;SDS011;54566;52.022;5.582;2022-07-04T06:48:40;21.98;;;4.05;;
67762;SDS011;54566;52.022;5.582;2022-07-04T06:51:06;16.23;;;4.18;;
67762;SDS011;54566;52.022;5.582;2022-07-04T06:53:32;10.80;;;3.95;;
67762;SDS011;54566;52.022;5.582;2022-07-04T06:55:57;16.30;;;4.43;;
67762;SDS011;54566;52.022;5.582;2022-07-04T06:58:23;22.27;;;4.38;;
67762;SDS011;54566;52.022;5.582;2022-07-04T07:00:48;16.45;;;4.47;;
67762;SDS011;54566;52.022;5.582;2022-07-04T07:03:15;13.65;;;4.30;;
67762;SDS011;54566;52.022;5.582;2022-07-04T07:05:40;14.05;;;4.28;;
67762;SDS011;54566;52.022;5.582;2022-07-04T07:08:06;15.40;;;4.38;;
67762;SDS011;54566;52.022;5.582;2022-07-04T07:10:32;14.20;;;4.25;;
67762;SDS011;54566;52.022;5.582;2022-07-04T07:12:58;20.13;;;4.47;;
67762;SDS011;54566;52.022;5.582;2022-07-04T07:15:24;16.80;;;4.18;;
67762;SDS011;54566;52.022;5.582;2022-07-04T07:17:50;19.10;;;4.65;;
67762;SDS011;54566;52.022;5.582;2022-07-04T07:20:15;14.65;;;4.35;;
67762;SDS011;54566;52.022;5.582;2022-07-04T07:22:41;12.68;;;4.60;;
67762;SDS011;54566;52.022;5.582;2022-07-04T07:25:08;12.02;;;4.88;;
67762;SDS011;54566;52.022;5.582;2022-07-04T07:27:38;17.05;;;5.82;;
67762;SDS011;54566;52.022;5.582;2022-07-04T07:30:06;12.48;;;4.45;;
67762;SDS011;54566;52.022;5.582;2022-07-04T07:32:32;12.18;;;4.72;;
67762;SDS011;54566;52.022;5.582;2022-07-04T07:34:58;15.82;;;5.50;;
67762;SDS011;54566;52.022;5.582;2022-07-04T07:37:23;17.30;;;4.75;;
67762;SDS011;54566;52.022;5.582;2022-07-04T07:39:49;21.58;;;5.25;;
67762;SDS011;54566;52.022;5.582;2022-07-04T07:42:15;21.63;;;4.80;;
67762;SDS011;54566;52.022;5.582;2022-07-04T07:44:41;24.70;;;4.57;;
67762;SDS011;54566;52.022;5.582;2022-07-04T07:47:11;16.45;;;5.03;;
67762;SDS011;54566;52.022;5.582;2022-07-04T07:49:37;19.08;;;4.45;;
67762;SDS011;54566;52.022;5.582;2022-07-04T07:52:03;17.27;;;4.72;;
67762;SDS011;54566;52.022;5.582;2022-07-04T07:54:28;15.20;;;5.20;;
67762;SDS011;54566;52.022;5.582;2022-07-04T07:56:54;20.52;;;5.20;;
67762;SDS011;54566;52.022;5.582;2022-07-04T07:59:19;17.58;;;4.85;;
67762;SDS011;54566;52.022;5.582;2022-07-04T08:01:45;18.17;;;5.85;;
67762;SDS011;54566;52.022;5.582;2022-07-04T08:04:11;16.70;;;5.43;;
67762;SDS011;54566;52.022;5.582;2022-07-04T08:06:55;17.08;;;5.80;;
67762;SDS011;54566;52.022;5.582;2022-07-04T08:09:20;14.05;;;5.10;;
67762;SDS011;54566;52.022;5.582;2022-07-04T08:11:46;14.30;;;5.10;;
67762;SDS011;54566;52.022;5.582;2022-07-04T08:14:12;16.45;;;5.03;;
67762;SDS011;54566;52.022;5.582;2022-07-04T08:16:38;13.10;;;4.35;;
67762;SDS011;54566;52.022;5.582;2022-07-04T08:19:05;17.07;;;4.93;;
67762;SDS011;54566;52.022;5.582;2022-07-04T08:21:30;16.48;;;4.95;;
67762;SDS011;54566;52.022;5.582;2022-07-04T08:23:56;12.90;;;4.07;;
67762;SDS011;54566;52.022;5.582;2022-07-04T08:26:22;15.70;;;3.90;;
67762;SDS011;54566;52.022;5.582;2022-07-04T08:28:48;11.02;;;3.72;;
67762;SDS011;54566;52.022;5.582;2022-07-04T08:31:16;13.25;;;3.78;;
67762;SDS011;54566;52.022;5.582;2022-07-04T08:33:43;11.85;;;3.28;;
67762;SDS011;54566;52.022;5.582;2022-07-04T08:36:09;16.63;;;4.10;;
67762;SDS011;54566;52.022;5.582;2022-07-04T08:38:34;11.23;;;3.08;;
67762;SDS011;54566;52.022;5.582;2022-07-04T08:41:02;17.77;;;2.97;;
67762;SDS011;54566;52.022;5.582;2022-07-04T08:43:28;12.35;;;2.47;;
67762;SDS011;54566;52.022;5.582;2022-07-04T08:45:59;10.05;;;2.28;;
67762;SDS011;54566;52.022;5.582;2022-07-04T08:48:27;10.77;;;2.97;;
67762;SDS011;54566;52.022;5.582;2022-07-04T08:50:56;11.65;;;2.53;;
67762;SDS011;54566;52.022;5.582;2022-07-04T08:53:27;11.98;;;2.40;;
67762;SDS011;54566;52.022;5.582;2022-07-04T08:55:55;7.80;;;2.50;;
67762;SDS011;54566;52.022;5.582;2022-07-04T08:58:40;8.32;;;2.30;;
67762;SDS011;54566;52.022;5.582;2022-07-04T09:01:08;6.97;;;2.22;;
67762;SDS011;54566;52.022;5.582;2022-07-04T09:03:42;9.57;;;2.45;;
67762;SDS011;54566;52.022;5.582;2022-07-04T09:06:09;7.60;;;2.35;;
67762;SDS011;54566;52.022;5.582;2022-07-04T09:08:35;10.93;;;2.55;;
67762;SDS011;54566;52.022;5.582;2022-07-04T09:11:02;7.35;;;2.15;;
67762;SDS011;54566;52.022;5.582;2022-07-04T09:13:28;9.68;;;2.22;;
67762;SDS011;54566;52.022;5.582;2022-07-04T09:15:55;6.15;;;2.15;;
67762;SDS011;54566;52.022;5.582;2022-07-04T09:20:51;6.68;;;2.13;;
67762;SDS011;54566;52.022;5.582;2022-07-04T09:23:28;5.78;;;2.10;;
67762;SDS011;54566;52.022;5.582;2022-07-04T09:26:15;5.57;;;2.25;;
67762;SDS011;54566;52.022;5.582;2022-07-04T09:28:52;6.28;;;2.08;;
67762;SDS011;54566;52.022;5.582;2022-07-04T09:31:22;9.77;;;2.45;;
67762;SDS011;54566;52.022;5.582;2022-07-04T09:33:53;12.43;;;2.45;;
67762;SDS011;54566;52.022;5.582;2022-07-04T09:36:27;7.43;;;2.17;;
67762;SDS011;54566;52.022;5.582;2022-07-04T09:41:57;7.55;;;2.67;;
67762;SDS011;54566;52.022;5.582;2022-07-04T09:44:25;9.02;;;2.80;;
67762;SDS011;54566;52.022;5.582;2022-07-04T09:50:08;12.02;;;3.05;;
67762;SDS011;54566;52.022;5.582;2022-07-04T09:55:50;7.78;;;1.90;;
67762;SDS011;54566;52.022;5.582;2022-07-04T09:58:13;6.93;;;1.67;;
67762;SDS011;54566;52.022;5.582;2022-07-04T10:03:17;8.25;;;2.30;;
67762;SDS011;54566;52.022;5.582;2022-07-04T10:06:06;3.97;;;1.70;;
67762;SDS011;54566;52.022;5.582;2022-07-04T10:08:33;4.45;;;1.55;;
67762;SDS011;54566;52.022;5.582;2022-07-04T10:11:00;8.77;;;1.80;;
67762;SDS011;54566;52.022;5.582;2022-07-04T10:13:26;8.68;;;1.92;;
67762;SDS011;54566;52.022;5.582;2022-07-04T10:15:52;4.38;;;1.63;;
67762;SDS011;54566;52.022;5.582;2022-07-04T10:18:19;4.38;;;1.70;;
67762;SDS011;54566;52.022;5.582;2022-07-04T10:20:45;3.85;;;1.35;;
67762;SDS011;54566;52.022;5.582;2022-07-04T10:23:12;8.55;;;1.83;;
67762;SDS011;54566;52.022;5.582;2022-07-04T10:25:39;6.78;;;1.70;;
67762;SDS011;54566;52.022;5.582;2022-07-04T10:28:05;5.93;;;2.10;;
67762;SDS011;54566;52.022;5.582;2022-07-04T10:30:34;6.55;;;2.10;;
67762;SDS011;54566;52.022;5.582;2022-07-04T10:33:02;8.48;;;2.10;;
67762;SDS011;54566;52.022;5.582;2022-07-04T10:39:05;4.28;;;1.67;;
67762;SDS011;54566;52.022;5.582;2022-07-04T10:41:13;4.50;;;1.42;;
67762;SDS011;54566;52.022;5.582;2022-07-04T10:46:36;3.40;;;1.48;;
67762;SDS011;54566;52.022;5.582;2022-07-04T10:49:07;4.45;;;1.70;;
67762;SDS011;54566;52.022;5.582;2022-07-04T10:52:18;5.97;;;1.60;;
67762;SDS011;54566;52.022;5.582;2022-07-04T10:54:44;8.57;;;1.45;;
67762;SDS011;54566;52.022;5.582;2022-07-04T10:59:36;6.03;;;1.40;;
67762;SDS011;54566;52.022;5.582;2022-07-04T11:10:18;6.38;;;1.70;;
67762;SDS011;54566;52.022;5.582;2022-07-04T11:13:06;6.93;;;1.88;;
67762;SDS011;54566;52.022;5.582;2022-07-04T11:20:31;5.50;;;1.85;;
67762;SDS011;54566;52.022;5.582;2022-07-04T11:23:09;2.63;;;1.40;;
67762;SDS011;54566;52.022;5.582;2022-07-04T11:25:36;6.00;;;1.70;;
67762;SDS011;54566;52.022;5.582;2022-07-04T11:30:48;4.80;;;1.70;;
67762;SDS011;54566;52.022;5.582;2022-07-04T11:33:16;2.92;;;1.55;;
67762;SDS011;54566;52.022;5.582;2022-07-04T11:41:09;3.45;;;1.48;;
67762;SDS011;54566;52.022;5.582;2022-07-04T11:43:54;4.18;;;1.60;;
67762;SDS011;54566;52.022;5.582;2022-07-04T11:46:38;7.50;;;1.50;;
67762;SDS011;54566;52.022;5.582;2022-07-04T11:49:11;9.07;;;1.20;;
67762;SDS011;54566;52.022;5.582;2022-07-04T11:51:46;3.55;;;1.25;;
67762;SDS011;54566;52.022;5.582;2022-07-04T11:54:12;5.80;;;1.30;;
67762;SDS011;54566;52.022;5.582;2022-07-04T11:56:38;6.00;;;1.45;;
67762;SDS011;54566;52.022;5.582;2022-07-04T11:59:11;3.97;;;1.67;;
67762;SDS011;54566;52.022;5.582;2022-07-04T12:01:41;7.70;;;1.80;;
67762;SDS011;54566;52.022;5.582;2022-07-04T12:04:14;3.05;;;1.27;;
67762;SDS011;54566;52.022;5.582;2022-07-04T12:06:46;6.53;;;1.20;;
67762;SDS011;54566;52.022;5.582;2022-07-04T12:09:14;3.78;;;1.30;;
67762;SDS011;54566;52.022;5.582;2022-07-04T12:12:16;3.05;;;1.10;;
67762;SDS011;54566;52.022;5.582;2022-07-04T12:14:36;5.13;;;1.23;;
67762;SDS011;54566;52.022;5.582;2022-07-04T12:17:16;1.15;;;1.00;;
67762;SDS011;54566;52.022;5.582;2022-07-04T12:19:56;3.72;;;1.17;;
67762;SDS011;54566;52.022;5.582;2022-07-04T12:22:27;3.15;;;1.20;;
67762;SDS011;54566;52.022;5.582;2022-07-04T12:24:53;1.90;;;1.00;;
67762;SDS011;54566;52.022;5.582;2022-07-04T12:27:18;7.20;;;1.52;;
67762;SDS011;54566;52.022;5.582;2022-07-04T12:29:49;4.72;;;1.40;;
67762;SDS011;54566;52.022;5.582;2022-07-04T12:32:15;4.32;;;1.40;;
67762;SDS011;54566;52.022;5.582;2022-07-04T12:34:42;2.92;;;1.42;;
67762;SDS011;54566;52.022;5.582;2022-07-04T12:37:08;5.50;;;1.75;;
67762;SDS011;54566;52.022;5.582;2022-07-04T12:39:36;4.88;;;1.20;;
67762;SDS011;54566;52.022;5.582;2022-07-04T12:42:05;5.30;;;1.20;;
67762;SDS011;54566;52.022;5.582;2022-07-04T12:44:46;4.15;;;1.20;;
67762;SDS011;54566;52.022;5.582;2022-07-04T12:47:16;3.30;;;1.00;;
67762;SDS011;54566;52.022;5.582;2022-07-04T12:49:43;3.70;;;1.20;;
67762;SDS011;54566;52.022;5.582;2022-07-04T12:52:11;6.90;;;1.40;;
67762;SDS011;54566;52.022;5.582;2022-07-04T12:54:42;3.70;;;1.23;;
67762;SDS011;54566;52.022;5.582;2022-07-04T12:57:12;5.05;;;1.10;;
67762;SDS011;54566;52.022;5.582;2022-07-04T12:59:39;5.30;;;1.52;;
67762;SDS011;54566;52.022;5.582;2022-07-04T13:02:06;6.68;;;1.38;;
67762;SDS011;54566;52.022;5.582;2022-07-04T13:04:33;4.80;;;1.27;;
67762;SDS011;54566;52.022;5.582;2022-07-04T13:07:00;9.55;;;1.63;;
67762;SDS011;54566;52.022;5.582;2022-07-04T13:09:37;12.30;;;1.85;;
67762;SDS011;54566;52.022;5.582;2022-07-04T13:12:04;3.22;;;1.10;;
67762;SDS011;54566;52.022;5.582;2022-07-04T13:14:48;2.20;;;1.25;;
67762;SDS011;54566;52.022;5.582;2022-07-04T13:17:13;6.07;;;1.25;;
67762;SDS011;54566;52.022;5.582;2022-07-04T13:19:39;5.40;;;1.20;;
67762;SDS011;54566;52.022;5.582;2022-07-04T13:22:04;4.15;;;1.05;;
67762;SDS011;54566;52.022;5.582;2022-07-04T13:24:30;4.78;;;1.55;;
67762;SDS011;54566;52.022;5.582;2022-07-04T13:26:56;4.68;;;1.40;;
67762;SDS011;54566;52.022;5.582;2022-07-04T13:29:21;4.95;;;0.98;;
67762;SDS011;54566;52.022;5.582;2022-07-04T13:31:47;7.85;;;1.30;;
67762;SDS011;54566;52.022;5.582;2022-07-04T13:34:14;4.97;;;1.20;;
67762;SDS011;54566;52.022;5.582;2022-07-04T13:36:39;4.72;;;1.42;;
67762;SDS011;54566;52.022;5.582;2022-07-04T13:39:05;3.67;;;1.20;;
67762;SDS011;54566;52.022;5.582;2022-07-04T13:41:31;1.73;;;1.10;;
67762;SDS011;54566;52.022;5.582;2022-07-04T13:43:59;1.73;;;1.33;;
67762;SDS011;54566;52.022;5.582;2022-07-04T13:46:25;3.33;;;1.30;;
67762;SDS011;54566;52.022;5.582;2022-07-04T13:48:51;3.22;;;1.20;;
67762;SDS011;54566;52.022;5.582;2022-07-04T13:51:25;1.98;;;1.00;;
67762;SDS011;54566;52.022;5.582;2022-07-04T13:53:51;7.40;;;1.48;;
67762;SDS011;54566;52.022;5.582;2022-07-04T13:56:16;2.97;;;1.20;;
67762;SDS011;54566;52.022;5.582;2022-07-04T13:58:43;1.85;;;1.10;;
67762;SDS011;54566;52.022;5.582;2022-07-04T14:01:10;3.25;;;1.38;;
67762;SDS011;54566;52.022;5.582;2022-07-04T14:03:36;1.70;;;0.90;;
67762;SDS011;54566;52.022;5.582;2022-07-04T14:08:30;4.35;;;1.10;;
67762;SDS011;54566;52.022;5.582;2022-07-04T14:10:57;2.67;;;0.90;;
67762;SDS011;54566;52.022;5.582;2022-07-04T14:13:22;4.72;;;1.05;;
67762;SDS011;54566;52.022;5.582;2022-07-04T14:15:48;5.75;;;1.13;;
67762;SDS011;54566;52.022;5.582;2022-07-04T14:18:14;1.73;;;1.10;;
67762;SDS011;54566;52.022;5.582;2022-07-04T14:20:40;2.92;;;1.00;;
67762;SDS011;54566;52.022;5.582;2022-07-04T14:23:06;4.85;;;1.10;;
67762;SDS011;54566;52.022;5.582;2022-07-04T14:25:32;3.15;;;1.08;;
67762;SDS011;54566;52.022;5.582;2022-07-04T14:27:57;3.20;;;1.20;;
67762;SDS011;54566;52.022;5.582;2022-07-04T14:30:23;2.83;;;1.42;;
67762;SDS011;54566;52.022;5.582;2022-07-04T14:32:49;2.50;;;1.08;;
67762;SDS011;54566;52.022;5.582;2022-07-04T14:35:15;4.50;;;1.00;;
67762;SDS011;54566;52.022;5.582;2022-07-04T14:37:41;2.25;;;1.00;;
67762;SDS011;54566;52.022;5.582;2022-07-04T14:40:07;4.07;;;1.10;;
67762;SDS011;54566;52.022;5.582;2022-07-04T14:42:33;2.85;;;1.05;;
67762;SDS011;54566;52.022;5.582;2022-07-04T14:44:59;2.20;;;0.98;;
67762;SDS011;54566;52.022;5.582;2022-07-04T14:47:24;4.47;;;1.10;;
67762;SDS011;54566;52.022;5.582;2022-07-04T14:49:50;2.35;;;1.10;;
67762;SDS011;54566;52.022;5.582;2022-07-04T14:52:16;4.05;;;1.30;;
67762;SDS011;54566;52.022;5.582;2022-07-04T14:54:41;3.75;;;1.25;;
67762;SDS011;54566;52.022;5.582;2022-07-04T14:57:08;1.65;;;0.95;;
67762;SDS011;54566;52.022;5.582;2022-07-04T14:59:34;2.65;;;0.98;;
67762;SDS011;54566;52.022;5.582;2022-07-04T15:02:03;5.65;;;1.08;;
67762;SDS011;54566;52.022;5.582;2022-07-04T15:04:29;2.05;;;1.05;;
67762;SDS011;54566;52.022;5.582;2022-07-04T15:06:55;2.95;;;1.27;;
67762;SDS011;54566;52.022;5.582;2022-07-04T15:09:21;4.57;;;1.20;;
67762;SDS011;54566;52.022;5.582;2022-07-04T15:11:47;2.75;;;1.00;;
67762;SDS011;54566;52.022;5.582;2022-07-04T15:14:15;3.80;;;1.00;;
67762;SDS011;54566;52.022;5.582;2022-07-04T15:16:41;6.68;;;1.13;;
67762;SDS011;54566;52.022;5.582;2022-07-04T15:19:07;2.90;;;0.90;;
67762;SDS011;54566;52.022;5.582;2022-07-04T15:21:33;2.70;;;1.10;;
67762;SDS011;54566;52.022;5.582;2022-07-04T15:24:17;3.20;;;1.10;;
67762;SDS011;54566;52.022;5.582;2022-07-04T15:29:16;2.90;;;1.25;;
67762;SDS011;54566;52.022;5.582;2022-07-04T15:34:09;2.35;;;1.10;;
67762;SDS011;54566;52.022;5.582;2022-07-04T15:36:35;4.25;;;1.27;;
67762;SDS011;54566;52.022;5.582;2022-07-04T15:39:19;2.50;;;1.10;;
67762;SDS011;54566;52.022;5.582;2022-07-04T15:41:45;7.28;;;1.40;;